sensor_id;sensor_type;location;lat;lon;timestamp;P1;durP1;ratioP1;P2;durP2;ratioP2
673;SDS011;319;48.764;9.174;2023-04-25T00:01:20;3.30;;;3.20;;
673;SDS011;319;48.764;9.174;2023-04-25T00:03:47;3.30;;;3.20;;
673;SDS011;319;48.764;9.174;2023-04-25T00:06:15;3.30;;;3.20;;
673;SDS011;319;48.764;9.174;2023-04-25T00:08:43;3.60;;;3.50;;
673;SDS011;319;48.764;9.174;2023-04-25T00:11:11;3.40;;;3.30;;
673;SDS011;319;48.764;9.174;2023-04-25T00:13:38;3.60;;;3.50;;
673;SDS011;319;48.764;9.174;2023-04-25T00:16:06;3.50;;;3.40;;
673;SDS011;319;48.764;9.174;2023-04-25T00:18:33;3.43;;;3.33;;
673;SDS011;319;48.764;9.174;2023-04-25T00:21:01;3.40;;;3.30;;
673;SDS011;319;48.764;9.174;2023-04-25T00:23:31;3.10;;;3.00;;
673;SDS011;319;48.764;9.174;2023-04-25T00:25:58;3.00;;;2.90;;
673;SDS011;319;48.764;9.174;2023-04-25T00:28:26;3.30;;;3.20;;
673;SDS011;319;48.764;9.174;2023-04-25T00:30:53;3.40;;;3.30;;
673;SDS011;319;48.764;9.174;2023-04-25T00:33:20;3.33;;;3.23;;
673;SDS011;319;48.764;9.174;2023-04-25T00:35:47;3.30;;;3.20;;
673;SDS011;319;48.764;9.174;2023-04-25T00:40:55;3.30;;;3.20;;
673;SDS011;319;48.764;9.174;2023-04-25T00:43:23;3.20;;;3.10;;
673;SDS011;319;48.764;9.174;2023-04-25T00:45:52;3.37;;;3.27;;
673;SDS011;319;48.764;9.174;2023-04-25T00:48:22;3.70;;;3.60;;
673;SDS011;319;48.764;9.174;2023-04-25T00:50:51;3.50;;;3.40;;
673;SDS011;319;48.764;9.174;2023-04-25T00:53:19;3.30;;;3.20;;
673;SDS011;319;48.764;9.174;2023-04-25T00:55:47;3.80;;;3.70;;
673;SDS011;319;48.764;9.174;2023-04-25T00:58:16;3.50;;;3.40;;
673;SDS011;319;48.764;9.174;2023-04-25T01:00:43;3.50;;;3.40;;
673;SDS011;319;48.764;9.174;2023-04-25T01:03:13;3.20;;;3.10;;
673;SDS011;319;48.764;9.174;2023-04-25T01:05:41;3.30;;;3.20;;
673;SDS011;319;48.764;9.174;2023-04-25T01:08:09;3.20;;;3.10;;
673;SDS011;319;48.764;9.174;2023-04-25T01:10:36;3.10;;;3.00;;
673;SDS011;319;48.764;9.174;2023-04-25T01:13:03;3.20;;;3.10;;
673;SDS011;319;48.764;9.174;2023-04-25T01:15:30;3.10;;;3.00;;
673;SDS011;319;48.764;9.174;2023-04-25T01:17:57;3.20;;;3.10;;
673;SDS011;319;48.764;9.174;2023-04-25T01:20:30;3.00;;;2.90;;
673;SDS011;319;48.764;9.174;2023-04-25T01:23:00;2.80;;;2.80;;
673;SDS011;319;48.764;9.174;2023-04-25T01:25:27;3.00;;;2.90;;
673;SDS011;319;48.764;9.174;2023-04-25T01:27:55;3.10;;;3.00;;
673;SDS011;319;48.764;9.174;2023-04-25T01:30:22;2.70;;;2.70;;
673;SDS011;319;48.764;9.174;2023-04-25T01:32:50;2.90;;;2.90;;
673;SDS011;319;48.764;9.174;2023-04-25T01:35:18;3.00;;;2.90;;
673;SDS011;319;48.764;9.174;2023-04-25T01:37:45;3.30;;;3.20;;
673;SDS011;319;48.764;9.174;2023-04-25T01:40:13;3.30;;;3.20;;
673;SDS011;319;48.764;9.174;2023-04-25T01:42:41;3.30;;;3.20;;
673;SDS011;319;48.764;9.174;2023-04-25T01:45:09;3.40;;;3.30;;
673;SDS011;319;48.764;9.174;2023-04-25T01:47:37;3.20;;;3.10;;
673;SDS011;319;48.764;9.174;2023-04-25T01:50:07;3.20;;;3.10;;
673;SDS011;319;48.764;9.174;2023-04-25T01:52:34;3.20;;;3.10;;
673;SDS011;319;48.764;9.174;2023-04-25T01:55:01;3.30;;;3.20;;
673;SDS011;319;48.764;9.174;2023-04-25T01:57:30;3.10;;;3.00;;
673;SDS011;319;48.764;9.174;2023-04-25T01:59:58;3.20;;;3.10;;
673;SDS011;319;48.764;9.174;2023-04-25T02:02:26;3.10;;;3.00;;
673;SDS011;319;48.764;9.174;2023-04-25T02:04:53;3.40;;;3.30;;
673;SDS011;319;48.764;9.174;2023-04-25T02:07:21;3.20;;;3.10;;
673;SDS011;319;48.764;9.174;2023-04-25T02:09:48;3.00;;;2.90;;
673;SDS011;319;48.764;9.174;2023-04-25T02:12:15;2.07;;;2.07;;
673;SDS011;319;48.764;9.174;2023-04-25T02:14:43;2.73;;;2.73;;
673;SDS011;319;48.764;9.174;2023-04-25T02:17:10;3.50;;;3.40;;
673;SDS011;319;48.764;9.174;2023-04-25T02:19:38;3.70;;;3.60;;
673;SDS011;319;48.764;9.174;2023-04-25T02:22:05;3.20;;;3.10;;
673;SDS011;319;48.764;9.174;2023-04-25T02:24:32;4.00;;;3.90;;
673;SDS011;319;48.764;9.174;2023-04-25T02:26:59;3.70;;;3.60;;
673;SDS011;319;48.764;9.174;2023-04-25T02:29:26;3.80;;;3.70;;
673;SDS011;319;48.764;9.174;2023-04-25T02:31:55;2.60;;;2.60;;
673;SDS011;319;48.764;9.174;2023-04-25T02:34:22;2.30;;;2.30;;
673;SDS011;319;48.764;9.174;2023-04-25T02:36:49;2.53;;;2.53;;
673;SDS011;319;48.764;9.174;2023-04-25T02:39:16;1.80;;;1.80;;
673;SDS011;319;48.764;9.174;2023-04-25T02:41:42;1.50;;;1.50;;
673;SDS011;319;48.764;9.174;2023-04-25T02:44:09;2.20;;;2.20;;
673;SDS011;319;48.764;9.174;2023-04-25T02:46:36;1.80;;;1.80;;
673;SDS011;319;48.764;9.174;2023-04-25T02:49:04;1.60;;;1.60;;
673;SDS011;319;48.764;9.174;2023-04-25T02:51:31;1.80;;;1.80;;
673;SDS011;319;48.764;9.174;2023-04-25T02:53:58;1.80;;;1.80;;
673;SDS011;319;48.764;9.174;2023-04-25T02:56:25;3.27;;;3.17;;
673;SDS011;319;48.764;9.174;2023-04-25T02:58:52;4.53;;;4.43;;
673;SDS011;319;48.764;9.174;2023-04-25T03:01:19;4.20;;;4.10;;
673;SDS011;319;48.764;9.174;2023-04-25T03:03:46;3.60;;;3.50;;
673;SDS011;319;48.764;9.174;2023-04-25T03:06:14;3.30;;;3.20;;
673;SDS011;319;48.764;9.174;2023-04-25T03:08:41;2.93;;;2.87;;
673;SDS011;319;48.764;9.174;2023-04-25T03:11:09;2.30;;;2.30;;
673;SDS011;319;48.764;9.174;2023-04-25T03:13:36;2.00;;;2.00;;
673;SDS011;319;48.764;9.174;2023-04-25T03:16:03;2.10;;;2.10;;
673;SDS011;319;48.764;9.174;2023-04-25T03:18:30;1.90;;;1.90;;
673;SDS011;319;48.764;9.174;2023-04-25T03:20:57;2.20;;;2.20;;
673;SDS011;319;48.764;9.174;2023-04-25T03:23:26;2.10;;;2.10;;
673;SDS011;319;48.764;9.174;2023-04-25T03:25:52;2.10;;;2.10;;
673;SDS011;319;48.764;9.174;2023-04-25T03:28:19;1.90;;;1.90;;
673;SDS011;319;48.764;9.174;2023-04-25T03:30:46;1.63;;;1.63;;
673;SDS011;319;48.764;9.174;2023-04-25T03:33:13;2.10;;;2.10;;
673;SDS011;319;48.764;9.174;2023-04-25T03:35:40;1.67;;;1.67;;
673;SDS011;319;48.764;9.174;2023-04-25T03:38:07;1.90;;;1.90;;
673;SDS011;319;48.764;9.174;2023-04-25T03:40:35;2.03;;;2.03;;
673;SDS011;319;48.764;9.174;2023-04-25T03:43:02;1.40;;;1.40;;
673;SDS011;319;48.764;9.174;2023-04-25T03:45:30;1.80;;;1.80;;
673;SDS011;319;48.764;9.174;2023-04-25T03:47:57;4.30;;;4.20;;
673;SDS011;319;48.764;9.174;2023-04-25T03:50:24;4.00;;;3.90;;
673;SDS011;319;48.764;9.174;2023-04-25T03:52:51;3.20;;;3.10;;
673;SDS011;319;48.764;9.174;2023-04-25T03:55:18;2.10;;;2.10;;
673;SDS011;319;48.764;9.174;2023-04-25T03:57:47;3.03;;;2.93;;
673;SDS011;319;48.764;9.174;2023-04-25T04:00:14;2.10;;;2.10;;
673;SDS011;319;48.764;9.174;2023-04-25T04:02:41;2.57;;;2.57;;
673;SDS011;319;48.764;9.174;2023-04-25T04:05:08;3.10;;;3.00;;
673;SDS011;319;48.764;9.174;2023-04-25T04:07:35;2.00;;;2.00;;
673;SDS011;319;48.764;9.174;2023-04-25T04:10:05;1.10;;;1.10;;
673;SDS011;319;48.764;9.174;2023-04-25T04:12:32;1.00;;;1.00;;
673;SDS011;319;48.764;9.174;2023-04-25T04:15:00;1.00;;;1.00;;
673;SDS011;319;48.764;9.174;2023-04-25T04:17:28;1.10;;;1.10;;
673;SDS011;319;48.764;9.174;2023-04-25T04:19:55;1.30;;;1.30;;
673;SDS011;319;48.764;9.174;2023-04-25T04:22:22;1.30;;;1.30;;
673;SDS011;319;48.764;9.174;2023-04-25T04:24:49;1.40;;;1.40;;
673;SDS011;319;48.764;9.174;2023-04-25T04:27:17;1.03;;;1.03;;
673;SDS011;319;48.764;9.174;2023-04-25T04:29:44;1.20;;;1.20;;
673;SDS011;319;48.764;9.174;2023-04-25T04:32:12;1.10;;;1.10;;
673;SDS011;319;48.764;9.174;2023-04-25T04:34:40;1.20;;;1.20;;
673;SDS011;319;48.764;9.174;2023-04-25T04:37:07;1.10;;;1.10;;
673;SDS011;319;48.764;9.174;2023-04-25T04:39:34;1.10;;;1.10;;
673;SDS011;319;48.764;9.174;2023-04-25T04:42:02;1.00;;;1.00;;
673;SDS011;319;48.764;9.174;2023-04-25T04:44:30;1.07;;;1.07;;
673;SDS011;319;48.764;9.174;2023-04-25T04:46:59;1.10;;;1.10;;
673;SDS011;319;48.764;9.174;2023-04-25T04:49:28;1.10;;;1.10;;
673;SDS011;319;48.764;9.174;2023-04-25T04:51:55;1.00;;;1.00;;
673;SDS011;319;48.764;9.174;2023-04-25T04:54:22;1.20;;;1.20;;
673;SDS011;319;48.764;9.174;2023-04-25T04:56:48;1.20;;;1.20;;
673;SDS011;319;48.764;9.174;2023-04-25T04:59:17;1.20;;;1.20;;
673;SDS011;319;48.764;9.174;2023-04-25T05:01:44;1.10;;;1.10;;
673;SDS011;319;48.764;9.174;2023-04-25T05:04:11;1.10;;;1.10;;
673;SDS011;319;48.764;9.174;2023-04-25T05:06:40;1.07;;;1.07;;
673;SDS011;319;48.764;9.174;2023-04-25T05:09:06;1.20;;;1.20;;
673;SDS011;319;48.764;9.174;2023-04-25T05:11:33;1.20;;;1.20;;
673;SDS011;319;48.764;9.174;2023-04-25T05:14:00;1.10;;;1.10;;
673;SDS011;319;48.764;9.174;2023-04-25T05:16:27;1.00;;;1.00;;
673;SDS011;319;48.764;9.174;2023-04-25T05:18:54;1.10;;;1.10;;
673;SDS011;319;48.764;9.174;2023-04-25T05:21:21;1.10;;;1.10;;
673;SDS011;319;48.764;9.174;2023-04-25T05:23:49;1.10;;;1.10;;
673;SDS011;319;48.764;9.174;2023-04-25T05:26:16;1.10;;;1.10;;
673;SDS011;319;48.764;9.174;2023-04-25T05:28:43;1.10;;;1.10;;
673;SDS011;319;48.764;9.174;2023-04-25T05:31:10;1.30;;;1.30;;
673;SDS011;319;48.764;9.174;2023-04-25T05:33:37;1.10;;;1.10;;
673;SDS011;319;48.764;9.174;2023-04-25T05:36:04;1.07;;;1.07;;
673;SDS011;319;48.764;9.174;2023-04-25T05:38:32;1.20;;;1.20;;
673;SDS011;319;48.764;9.174;2023-04-25T05:41:00;1.10;;;1.10;;
673;SDS011;319;48.764;9.174;2023-04-25T05:43:27;1.10;;;1.10;;
673;SDS011;319;48.764;9.174;2023-04-25T05:45:54;1.10;;;1.10;;
673;SDS011;319;48.764;9.174;2023-04-25T05:48:21;1.20;;;1.20;;
673;SDS011;319;48.764;9.174;2023-04-25T05:50:48;2.93;;;2.83;;
673;SDS011;319;48.764;9.174;2023-04-25T05:53:16;2.20;;;2.20;;
673;SDS011;319;48.764;9.174;2023-04-25T05:55:43;2.50;;;2.50;;
673;SDS011;319;48.764;9.174;2023-04-25T05:58:12;3.10;;;3.00;;
673;SDS011;319;48.764;9.174;2023-04-25T06:00:41;2.60;;;2.60;;
673;SDS011;319;48.764;9.174;2023-04-25T06:03:09;2.60;;;2.60;;
673;SDS011;319;48.764;9.174;2023-04-25T06:05:36;2.50;;;2.50;;
673;SDS011;319;48.764;9.174;2023-04-25T06:08:03;2.30;;;2.30;;
673;SDS011;319;48.764;9.174;2023-04-25T06:10:30;2.50;;;2.50;;
673;SDS011;319;48.764;9.174;2023-04-25T06:12:57;2.40;;;2.40;;
673;SDS011;319;48.764;9.174;2023-04-25T06:15:25;2.50;;;2.50;;
673;SDS011;319;48.764;9.174;2023-04-25T06:17:52;2.30;;;2.30;;
673;SDS011;319;48.764;9.174;2023-04-25T06:20:19;2.20;;;2.20;;
673;SDS011;319;48.764;9.174;2023-04-25T06:22:49;2.30;;;2.30;;
673;SDS011;319;48.764;9.174;2023-04-25T06:25:16;2.40;;;2.40;;
673;SDS011;319;48.764;9.174;2023-04-25T06:27:43;2.60;;;2.60;;
673;SDS011;319;48.764;9.174;2023-04-25T06:30:10;2.10;;;2.10;;
673;SDS011;319;48.764;9.174;2023-04-25T06:32:39;3.50;;;3.40;;
673;SDS011;319;48.764;9.174;2023-04-25T06:35:06;3.17;;;3.07;;
673;SDS011;319;48.764;9.174;2023-04-25T06:37:33;3.60;;;3.50;;
673;SDS011;319;48.764;9.174;2023-04-25T06:40:00;3.47;;;3.37;;
673;SDS011;319;48.764;9.174;2023-04-25T06:42:27;3.63;;;3.53;;
673;SDS011;319;48.764;9.174;2023-04-25T06:44:54;3.80;;;3.70;;
673;SDS011;319;48.764;9.174;2023-04-25T06:47:21;4.47;;;4.37;;
673;SDS011;319;48.764;9.174;2023-04-25T06:49:49;4.70;;;4.60;;
673;SDS011;319;48.764;9.174;2023-04-25T06:52:16;4.30;;;4.20;;
673;SDS011;319;48.764;9.174;2023-04-25T06:54:44;4.50;;;4.40;;
673;SDS011;319;48.764;9.174;2023-04-25T06:57:10;3.70;;;3.60;;
673;SDS011;319;48.764;9.174;2023-04-25T06:59:37;1.90;;;1.90;;
673;SDS011;319;48.764;9.174;2023-04-25T07:02:04;2.10;;;2.10;;
673;SDS011;319;48.764;9.174;2023-04-25T07:04:32;2.10;;;2.10;;
673;SDS011;319;48.764;9.174;2023-04-25T07:07:00;2.70;;;2.70;;
673;SDS011;319;48.764;9.174;2023-04-25T07:09:27;2.20;;;2.20;;
673;SDS011;319;48.764;9.174;2023-04-25T07:11:54;1.80;;;1.80;;
673;SDS011;319;48.764;9.174;2023-04-25T07:14:21;2.40;;;2.40;;
673;SDS011;319;48.764;9.174;2023-04-25T07:16:48;2.30;;;2.30;;
673;SDS011;319;48.764;9.174;2023-04-25T07:19:15;2.30;;;2.30;;
673;SDS011;319;48.764;9.174;2023-04-25T07:21:42;2.60;;;2.60;;
673;SDS011;319;48.764;9.174;2023-04-25T07:24:10;2.30;;;2.30;;
673;SDS011;319;48.764;9.174;2023-04-25T07:26:37;2.80;;;2.80;;
673;SDS011;319;48.764;9.174;2023-04-25T07:29:04;2.40;;;2.40;;
673;SDS011;319;48.764;9.174;2023-04-25T07:31:31;2.40;;;2.40;;
673;SDS011;319;48.764;9.174;2023-04-25T07:33:58;2.20;;;2.20;;
673;SDS011;319;48.764;9.174;2023-04-25T07:36:25;2.40;;;2.40;;
673;SDS011;319;48.764;9.174;2023-04-25T07:38:52;2.20;;;2.20;;
673;SDS011;319;48.764;9.174;2023-04-25T07:41:20;2.50;;;2.50;;
673;SDS011;319;48.764;9.174;2023-04-25T07:43:48;2.07;;;2.07;;
673;SDS011;319;48.764;9.174;2023-04-25T07:46:15;2.10;;;2.10;;
673;SDS011;319;48.764;9.174;2023-04-25T07:48:42;1.40;;;1.40;;
673;SDS011;319;48.764;9.174;2023-04-25T07:51:08;1.50;;;1.50;;
673;SDS011;319;48.764;9.174;2023-04-25T07:53:35;1.70;;;1.70;;
673;SDS011;319;48.764;9.174;2023-04-25T07:56:03;2.30;;;2.30;;
673;SDS011;319;48.764;9.174;2023-04-25T07:58:31;2.40;;;2.40;;
673;SDS011;319;48.764;9.174;2023-04-25T08:00:58;2.03;;;2.03;;
673;SDS011;319;48.764;9.174;2023-04-25T08:03:28;2.10;;;2.10;;
673;SDS011;319;48.764;9.174;2023-04-25T08:05:55;2.03;;;2.03;;
673;SDS011;319;48.764;9.174;2023-04-25T08:08:22;1.10;;;1.10;;
673;SDS011;319;48.764;9.174;2023-04-25T08:10:49;1.10;;;1.10;;
673;SDS011;319;48.764;9.174;2023-04-25T08:13:16;1.93;;;1.93;;
673;SDS011;319;48.764;9.174;2023-04-25T08:15:44;1.30;;;1.30;;
673;SDS011;319;48.764;9.174;2023-04-25T08:18:11;1.33;;;1.33;;
673;SDS011;319;48.764;9.174;2023-04-25T08:20:38;1.40;;;1.40;;
673;SDS011;319;48.764;9.174;2023-04-25T08:23:05;1.30;;;1.30;;
673;SDS011;319;48.764;9.174;2023-04-25T08:25:33;1.30;;;1.30;;
673;SDS011;319;48.764;9.174;2023-04-25T08:28:00;1.40;;;1.40;;
673;SDS011;319;48.764;9.174;2023-04-25T08:30:28;1.33;;;1.33;;
673;SDS011;319;48.764;9.174;2023-04-25T08:32:56;1.50;;;1.50;;
673;SDS011;319;48.764;9.174;2023-04-25T08:35:23;1.90;;;1.90;;
673;SDS011;319;48.764;9.174;2023-04-25T08:37:50;1.50;;;1.50;;
673;SDS011;319;48.764;9.174;2023-04-25T08:40:16;1.60;;;1.60;;
673;SDS011;319;48.764;9.174;2023-04-25T08:42:51;1.23;;;1.23;;
673;SDS011;319;48.764;9.174;2023-04-25T08:45:19;1.63;;;1.63;;
673;SDS011;319;48.764;9.174;2023-04-25T08:47:47;1.40;;;1.40;;
673;SDS011;319;48.764;9.174;2023-04-25T08:50:19;1.30;;;1.30;;
673;SDS011;319;48.764;9.174;2023-04-25T08:52:48;1.30;;;1.30;;
673;SDS011;319;48.764;9.174;2023-04-25T08:55:17;1.30;;;1.30;;
673;SDS011;319;48.764;9.174;2023-04-25T08:57:45;1.40;;;1.40;;
673;SDS011;319;48.764;9.174;2023-04-25T09:00:12;1.40;;;1.40;;
673;SDS011;319;48.764;9.174;2023-04-25T09:02:39;1.30;;;1.30;;
673;SDS011;319;48.764;9.174;2023-04-25T09:05:08;1.60;;;1.60;;
673;SDS011;319;48.764;9.174;2023-04-25T09:07:37;1.60;;;1.60;;
673;SDS011;319;48.764;9.174;2023-04-25T09:10:04;1.50;;;1.50;;
673;SDS011;319;48.764;9.174;2023-04-25T09:12:32;1.70;;;1.70;;
673;SDS011;319;48.764;9.174;2023-04-25T09:15:03;1.43;;;1.43;;
673;SDS011;319;48.764;9.174;2023-04-25T09:17:31;1.90;;;1.90;;
673;SDS011;319;48.764;9.174;2023-04-25T09:20:05;1.60;;;1.60;;
673;SDS011;319;48.764;9.174;2023-04-25T09:22:33;1.50;;;1.50;;
673;SDS011;319;48.764;9.174;2023-04-25T09:25:03;1.40;;;1.40;;
673;SDS011;319;48.764;9.174;2023-04-25T09:27:34;1.40;;;1.40;;
673;SDS011;319;48.764;9.174;2023-04-25T09:30:01;1.70;;;1.70;;
673;SDS011;319;48.764;9.174;2023-04-25T09:32:29;1.40;;;1.40;;
673;SDS011;319;48.764;9.174;2023-04-25T09:34:57;1.37;;;1.37;;
673;SDS011;319;48.764;9.174;2023-04-25T09:37:24;1.50;;;1.50;;
673;SDS011;319;48.764;9.174;2023-04-25T09:39:53;1.40;;;1.40;;
673;SDS011;319;48.764;9.174;2023-04-25T09:42:23;1.30;;;1.30;;
673;SDS011;319;48.764;9.174;2023-04-25T09:44:52;1.10;;;1.10;;
673;SDS011;319;48.764;9.174;2023-04-25T09:47:19;1.10;;;1.10;;
673;SDS011;319;48.764;9.174;2023-04-25T09:49:48;1.10;;;1.10;;
673;SDS011;319;48.764;9.174;2023-04-25T09:52:16;1.10;;;1.10;;
673;SDS011;319;48.764;9.174;2023-04-25T09:54:44;1.10;;;1.10;;
673;SDS011;319;48.764;9.174;2023-04-25T09:57:12;1.10;;;1.10;;
673;SDS011;319;48.764;9.174;2023-04-25T09:59:44;1.20;;;1.20;;
673;SDS011;319;48.764;9.174;2023-04-25T10:02:12;1.30;;;1.30;;
673;SDS011;319;48.764;9.174;2023-04-25T10:04:40;1.20;;;1.20;;
673;SDS011;319;48.764;9.174;2023-04-25T10:07:08;1.10;;;1.10;;
673;SDS011;319;48.764;9.174;2023-04-25T10:09:36;1.13;;;1.13;;
673;SDS011;319;48.764;9.174;2023-04-25T10:12:06;1.10;;;1.10;;
673;SDS011;319;48.764;9.174;2023-04-25T10:14:33;1.00;;;1.00;;
673;SDS011;319;48.764;9.174;2023-04-25T10:17:02;1.00;;;1.00;;
673;SDS011;319;48.764;9.174;2023-04-25T10:19:29;1.00;;;1.00;;
673;SDS011;319;48.764;9.174;2023-04-25T10:22:03;1.10;;;1.10;;
673;SDS011;319;48.764;9.174;2023-04-25T10:24:34;1.00;;;1.00;;
673;SDS011;319;48.764;9.174;2023-04-25T10:27:02;1.00;;;1.00;;
673;SDS011;319;48.764;9.174;2023-04-25T10:29:30;1.10;;;1.10;;
673;SDS011;319;48.764;9.174;2023-04-25T10:31:57;1.00;;;1.00;;
673;SDS011;319;48.764;9.174;2023-04-25T10:34:37;1.10;;;1.10;;
673;SDS011;319;48.764;9.174;2023-04-25T10:37:05;1.10;;;1.10;;
673;SDS011;319;48.764;9.174;2023-04-25T10:39:35;0.90;;;0.90;;
673;SDS011;319;48.764;9.174;2023-04-25T10:42:03;1.10;;;1.10;;
673;SDS011;319;48.764;9.174;2023-04-25T10:44:31;1.20;;;1.20;;
673;SDS011;319;48.764;9.174;2023-04-25T10:46:58;1.10;;;1.10;;
673;SDS011;319;48.764;9.174;2023-04-25T10:49:34;1.10;;;1.10;;
673;SDS011;319;48.764;9.174;2023-04-25T10:52:12;1.20;;;1.20;;
673;SDS011;319;48.764;9.174;2023-04-25T10:54:51;1.10;;;1.10;;
673;SDS011;319;48.764;9.174;2023-04-25T11:00:15;1.20;;;1.20;;
673;SDS011;319;48.764;9.174;2023-04-25T11:02:44;1.57;;;1.57;;
673;SDS011;319;48.764;9.174;2023-04-25T11:05:22;1.10;;;1.10;;
673;SDS011;319;48.764;9.174;2023-04-25T11:07:54;1.10;;;1.10;;
673;SDS011;319;48.764;9.174;2023-04-25T11:10:24;1.20;;;1.20;;
673;SDS011;319;48.764;9.174;2023-04-25T11:12:52;1.10;;;1.10;;
673;SDS011;319;48.764;9.174;2023-04-25T11:15:19;1.10;;;1.10;;
673;SDS011;319;48.764;9.174;2023-04-25T11:17:46;1.10;;;1.10;;
673;SDS011;319;48.764;9.174;2023-04-25T11:20:13;1.20;;;1.20;;
673;SDS011;319;48.764;9.174;2023-04-25T11:22:42;1.10;;;1.10;;
673;SDS011;319;48.764;9.174;2023-04-25T11:25:11;1.10;;;1.10;;
673;SDS011;319;48.764;9.174;2023-04-25T11:27:48;1.10;;;1.10;;
673;SDS011;319;48.764;9.174;2023-04-25T11:30:16;1.10;;;1.10;;
673;SDS011;319;48.764;9.174;2023-04-25T11:32:43;1.23;;;1.23;;
673;SDS011;319;48.764;9.174;2023-04-25T11:35:11;1.23;;;1.23;;
673;SDS011;319;48.764;9.174;2023-04-25T11:37:38;1.10;;;1.10;;
673;SDS011;319;48.764;9.174;2023-04-25T11:40:07;1.20;;;1.20;;
673;SDS011;319;48.764;9.174;2023-04-25T11:42:36;1.20;;;1.20;;
673;SDS011;319;48.764;9.174;2023-04-25T11:45:04;1.10;;;1.10;;
673;SDS011;319;48.764;9.174;2023-04-25T11:47:32;1.20;;;1.20;;
673;SDS011;319;48.764;9.174;2023-04-25T11:50:00;1.10;;;1.10;;
673;SDS011;319;48.764;9.174;2023-04-25T11:52:35;1.10;;;1.10;;
673;SDS011;319;48.764;9.174;2023-04-25T11:55:03;1.10;;;1.10;;
673;SDS011;319;48.764;9.174;2023-04-25T11:57:34;1.10;;;1.10;;
673;SDS011;319;48.764;9.174;2023-04-25T12:00:10;1.10;;;1.10;;
673;SDS011;319;48.764;9.174;2023-04-25T12:02:40;1.10;;;1.10;;
673;SDS011;319;48.764;9.174;2023-04-25T12:05:08;1.10;;;1.10;;
673;SDS011;319;48.764;9.174;2023-04-25T12:07:35;1.10;;;1.10;;
673;SDS011;319;48.764;9.174;2023-04-25T12:10:04;1.00;;;1.00;;
673;SDS011;319;48.764;9.174;2023-04-25T12:12:34;1.10;;;1.10;;
673;SDS011;319;48.764;9.174;2023-04-25T12:15:08;1.10;;;1.10;;
673;SDS011;319;48.764;9.174;2023-04-25T12:17:36;1.07;;;1.07;;
673;SDS011;319;48.764;9.174;2023-04-25T12:20:07;1.10;;;1.10;;
673;SDS011;319;48.764;9.174;2023-04-25T12:22:35;1.00;;;1.00;;
673;SDS011;319;48.764;9.174;2023-04-25T12:25:03;1.00;;;1.00;;
673;SDS011;319;48.764;9.174;2023-04-25T12:27:31;1.10;;;1.10;;
673;SDS011;319;48.764;9.174;2023-04-25T12:30:00;1.00;;;1.00;;
673;SDS011;319;48.764;9.174;2023-04-25T12:32:27;1.20;;;1.20;;
673;SDS011;319;48.764;9.174;2023-04-25T12:34:54;1.10;;;1.10;;
673;SDS011;319;48.764;9.174;2023-04-25T12:37:20;1.10;;;1.10;;
673;SDS011;319;48.764;9.174;2023-04-25T12:39:47;1.07;;;1.07;;
673;SDS011;319;48.764;9.174;2023-04-25T12:42:14;1.10;;;1.10;;
673;SDS011;319;48.764;9.174;2023-04-25T12:44:41;1.13;;;1.13;;
673;SDS011;319;48.764;9.174;2023-04-25T12:47:09;1.10;;;1.10;;
673;SDS011;319;48.764;9.174;2023-04-25T12:49:36;1.10;;;1.10;;
673;SDS011;319;48.764;9.174;2023-04-25T12:52:03;1.07;;;1.07;;
673;SDS011;319;48.764;9.174;2023-04-25T12:54:30;1.20;;;1.20;;
673;SDS011;319;48.764;9.174;2023-04-25T12:56:57;1.10;;;1.10;;
673;SDS011;319;48.764;9.174;2023-04-25T12:59:24;1.10;;;1.10;;
673;SDS011;319;48.764;9.174;2023-04-25T13:01:51;1.10;;;1.10;;
673;SDS011;319;48.764;9.174;2023-04-25T13:04:19;1.10;;;1.10;;
673;SDS011;319;48.764;9.174;2023-04-25T13:06:47;1.10;;;1.10;;
673;SDS011;319;48.764;9.174;2023-04-25T13:09:13;1.00;;;1.00;;
673;SDS011;319;48.764;9.174;2023-04-25T13:11:41;1.10;;;1.10;;
673;SDS011;319;48.764;9.174;2023-04-25T13:14:08;1.20;;;1.20;;
673;SDS011;319;48.764;9.174;2023-04-25T13:16:35;1.67;;;1.67;;
673;SDS011;319;48.764;9.174;2023-04-25T13:19:02;2.60;;;2.60;;
673;SDS011;319;48.764;9.174;2023-04-25T13:21:30;3.40;;;3.30;;
673;SDS011;319;48.764;9.174;2023-04-25T13:23:58;2.30;;;2.30;;
673;SDS011;319;48.764;9.174;2023-04-25T13:26:25;2.50;;;2.50;;
673;SDS011;319;48.764;9.174;2023-04-25T13:28:52;2.60;;;2.60;;
673;SDS011;319;48.764;9.174;2023-04-25T13:31:19;2.33;;;2.33;;
673;SDS011;319;48.764;9.174;2023-04-25T13:33:46;0.90;;;0.90;;
673;SDS011;319;48.764;9.174;2023-04-25T13:36:13;1.00;;;1.00;;
673;SDS011;319;48.764;9.174;2023-04-25T13:38:41;1.00;;;1.00;;
673;SDS011;319;48.764;9.174;2023-04-25T13:41:10;1.10;;;1.10;;
673;SDS011;319;48.764;9.174;2023-04-25T13:43:41;3.73;;;3.63;;
673;SDS011;319;48.764;9.174;2023-04-25T13:46:07;1.10;;;1.10;;
673;SDS011;319;48.764;9.174;2023-04-25T13:48:34;1.00;;;1.00;;
673;SDS011;319;48.764;9.174;2023-04-25T13:51:02;1.00;;;1.00;;
673;SDS011;319;48.764;9.174;2023-04-25T13:53:29;1.00;;;1.00;;
673;SDS011;319;48.764;9.174;2023-04-25T13:55:57;1.10;;;1.10;;
673;SDS011;319;48.764;9.174;2023-04-25T13:58:24;1.10;;;1.10;;
673;SDS011;319;48.764;9.174;2023-04-25T14:00:51;1.10;;;1.10;;
673;SDS011;319;48.764;9.174;2023-04-25T14:03:18;1.03;;;1.03;;
673;SDS011;319;48.764;9.174;2023-04-25T14:05:45;1.10;;;1.10;;
673;SDS011;319;48.764;9.174;2023-04-25T14:08:12;1.03;;;1.03;;
673;SDS011;319;48.764;9.174;2023-04-25T14:10:39;1.00;;;1.00;;
673;SDS011;319;48.764;9.174;2023-04-25T14:13:08;0.90;;;0.90;;
673;SDS011;319;48.764;9.174;2023-04-25T14:15:39;1.10;;;1.10;;
673;SDS011;319;48.764;9.174;2023-04-25T14:18:20;1.43;;;1.43;;
673;SDS011;319;48.764;9.174;2023-04-25T14:20:46;1.20;;;1.20;;
673;SDS011;319;48.764;9.174;2023-04-25T14:23:13;1.10;;;1.10;;
673;SDS011;319;48.764;9.174;2023-04-25T14:25:40;1.00;;;1.00;;
673;SDS011;319;48.764;9.174;2023-04-25T14:28:09;1.00;;;1.00;;
673;SDS011;319;48.764;9.174;2023-04-25T14:30:36;1.00;;;1.00;;
673;SDS011;319;48.764;9.174;2023-04-25T14:33:03;1.10;;;1.10;;
673;SDS011;319;48.764;9.174;2023-04-25T14:35:30;1.00;;;1.00;;
673;SDS011;319;48.764;9.174;2023-04-25T14:37:57;1.10;;;1.10;;
673;SDS011;319;48.764;9.174;2023-04-25T14:40:24;1.00;;;1.00;;
673;SDS011;319;48.764;9.174;2023-04-25T14:42:51;1.10;;;1.10;;
673;SDS011;319;48.764;9.174;2023-04-25T14:45:19;1.10;;;1.10;;
673;SDS011;319;48.764;9.174;2023-04-25T14:47:46;1.30;;;1.30;;
673;SDS011;319;48.764;9.174;2023-04-25T14:50:13;1.10;;;1.10;;
673;SDS011;319;48.764;9.174;2023-04-25T14:52:40;1.20;;;1.20;;
673;SDS011;319;48.764;9.174;2023-04-25T14:55:13;1.10;;;1.10;;
673;SDS011;319;48.764;9.174;2023-04-25T14:57:40;1.10;;;1.10;;
673;SDS011;319;48.764;9.174;2023-04-25T15:00:08;1.10;;;1.10;;
673;SDS011;319;48.764;9.174;2023-04-25T15:02:41;1.00;;;1.00;;
673;SDS011;319;48.764;9.174;2023-04-25T15:05:08;1.00;;;1.00;;
673;SDS011;319;48.764;9.174;2023-04-25T15:07:35;1.00;;;1.00;;
673;SDS011;319;48.764;9.174;2023-04-25T15:10:04;1.10;;;1.10;;
673;SDS011;319;48.764;9.174;2023-04-25T15:12:36;1.00;;;1.00;;
673;SDS011;319;48.764;9.174;2023-04-25T15:15:03;1.10;;;1.10;;
673;SDS011;319;48.764;9.174;2023-04-25T15:17:31;9.20;;;9.00;;
673;SDS011;319;48.764;9.174;2023-04-25T15:19:59;1.60;;;1.60;;
673;SDS011;319;48.764;9.174;2023-04-25T15:22:26;9.43;;;9.23;;
673;SDS011;319;48.764;9.174;2023-04-25T15:24:53;8.93;;;8.73;;
673;SDS011;319;48.764;9.174;2023-04-25T15:27:21;8.97;;;8.77;;
673;SDS011;319;48.764;9.174;2023-04-25T15:29:48;7.10;;;6.90;;
673;SDS011;319;48.764;9.174;2023-04-25T15:32:15;9.20;;;9.00;;
673;SDS011;319;48.764;9.174;2023-04-25T15:34:42;7.90;;;7.70;;
673;SDS011;319;48.764;9.174;2023-04-25T15:37:10;9.07;;;8.87;;
673;SDS011;319;48.764;9.174;2023-04-25T15:39:37;1.33;;;1.33;;
673;SDS011;319;48.764;9.174;2023-04-25T15:42:04;1.10;;;1.10;;
673;SDS011;319;48.764;9.174;2023-04-25T15:44:30;1.10;;;1.10;;
673;SDS011;319;48.764;9.174;2023-04-25T15:46:57;1.20;;;1.20;;
673;SDS011;319;48.764;9.174;2023-04-25T15:49:24;1.10;;;1.10;;
673;SDS011;319;48.764;9.174;2023-04-25T15:51:52;1.10;;;1.10;;
673;SDS011;319;48.764;9.174;2023-04-25T15:54:21;1.10;;;1.10;;